Pastebin launched a little side project called VERYVIRAL.com, check it out ;-) Want more features on Pastebin? Sign Up, it's FREE!
Guest

Untitled

By: a guest on Aug 24th, 2010  |  syntax: None  |  size: 50.43 KB  |  views: 73  |  expires: Never
download  |  raw  |  embed  |  report abuse  |  print
Text below is selected. Please press Ctrl+C to copy to your clipboard. (⌘+C on Mac)
  1. 11:19:04 T:4488 M:968425472  NOTICE: -----------------------------------------------------------------------
  2. 11:19:04 T:4488 M:968388608  NOTICE: Starting XBMC, Platform: Windows 7, 64-bit (WoW) build 7600. Built on Aug 21 2010 (SVN:33004, compiler 1500)
  3. 11:19:04 T:4488 M:968388608  NOTICE: Intel(R) Core(TM)2 Duo CPU     E8400  @ 3.00GHz
  4. 11:19:04 T:4488 M:968384512  NOTICE: Desktop Resolution: 1786x990 32Bit at 30Hz
  5. 11:19:04 T:4488 M:968384512  NOTICE: Running with administrator rights
  6. 11:19:04 T:4488 M:968384512  NOTICE: special://xbmc/ is mapped to: C:\Program Files (x86)\XBMC
  7. 11:19:04 T:4488 M:968384512  NOTICE: special://xbmcbin/ is mapped to: C:\Program Files (x86)\XBMC
  8. 11:19:04 T:4488 M:968384512  NOTICE: special://masterprofile/ is mapped to: C:\Program Files (x86)\XBMC\portable_data\userdata
  9. 11:19:04 T:4488 M:968384512  NOTICE: special://home/ is mapped to: C:\Program Files (x86)\XBMC\portable_data
  10. 11:19:04 T:4488 M:968384512  NOTICE: special://temp/ is mapped to: C:\Program Files (x86)\XBMC\portable_data\temp
  11. 11:19:04 T:4488 M:968384512  NOTICE: The executable running is: C:\Program Files (x86)\XBMC\XBMC.exe
  12. 11:19:04 T:4488 M:968384512  NOTICE: Log File is located: C:\Program Files (x86)\XBMC\xbmc.log
  13. 11:19:04 T:4488 M:968384512  NOTICE: -----------------------------------------------------------------------
  14. 11:19:04 T:4488 M:968359936  NOTICE: Setup SDL
  15. 11:19:04 T:4488 M:967770112  NOTICE: Found screen: Generic PnP Monitor on NVIDIA GeForce 9400   , adapter 0.
  16. 11:19:04 T:4488 M:967761920  NOTICE: Primary mode: 1786x990 @ 30.00i - Full Screen
  17. 11:19:04 T:4488 M:967618560  NOTICE: Additional mode: 640x480 @ 60.00 - Full Screen
  18. 11:19:04 T:4488 M:967589888  NOTICE: Additional mode: 640x480 @ 59.94 - Full Screen
  19. 11:19:04 T:4488 M:967548928  NOTICE: Additional mode: 720x480 @ 60.00 - Full Screen
  20. 11:19:04 T:4488 M:967532544  NOTICE: Additional mode: 720x480 @ 59.94 - Full Screen
  21. 11:19:04 T:4488 M:967467008  NOTICE: Additional mode: 720x576 @ 60.00 - Full Screen
  22. 11:19:04 T:4488 M:967278592  NOTICE: Previous line repeats 2 times.
  23. 11:19:04 T:4488 M:967278592  NOTICE: Additional mode: 720x576 @ 59.94 - Full Screen
  24. 11:19:04 T:4488 M:967114752  NOTICE: Previous line repeats 2 times.
  25. 11:19:04 T:4488 M:967114752  NOTICE: Additional mode: 800x600 @ 30.00i - Full Screen
  26. 11:19:04 T:4488 M:967000064  NOTICE: Previous line repeats 2 times.
  27. 11:19:04 T:4488 M:967000064  NOTICE: Additional mode: 800x600 @ 29.97i - Full Screen
  28. 11:19:04 T:4488 M:967000064  NOTICE: Previous line repeats 2 times.
  29. 11:19:04 T:4488 M:967000064  NOTICE: Additional mode: 800x600 @ 60.00 - Full Screen
  30. 11:19:04 T:4488 M:967000064  NOTICE: Previous line repeats 2 times.
  31. 11:19:04 T:4488 M:967000064  NOTICE: Additional mode: 800x600 @ 59.94 - Full Screen
  32. 11:19:04 T:4488 M:967000064  NOTICE: Previous line repeats 2 times.
  33. 11:19:04 T:4488 M:967000064  NOTICE: Additional mode: 1024x768 @ 30.00i - Full Screen
  34. 11:19:04 T:4488 M:967000064  NOTICE: Previous line repeats 2 times.
  35. 11:19:04 T:4488 M:967000064  NOTICE: Additional mode: 1024x768 @ 29.97i - Full Screen
  36. 11:19:04 T:4488 M:967024640  NOTICE: Previous line repeats 2 times.
  37. 11:19:04 T:4488 M:967024640  NOTICE: Additional mode: 1024x768 @ 60.00 - Full Screen
  38. 11:19:04 T:4488 M:967000064  NOTICE: Previous line repeats 2 times.
  39. 11:19:04 T:4488 M:967000064  NOTICE: Additional mode: 1024x768 @ 59.94 - Full Screen
  40. 11:19:04 T:4488 M:967000064  NOTICE: Previous line repeats 2 times.
  41. 11:19:04 T:4488 M:967000064  NOTICE: Additional mode: 1152x864 @ 30.00i - Full Screen
  42. 11:19:04 T:4488 M:967000064  NOTICE: Previous line repeats 2 times.
  43. 11:19:04 T:4488 M:967000064  NOTICE: Additional mode: 1152x864 @ 29.97i - Full Screen
  44. 11:19:04 T:4488 M:967000064  NOTICE: Previous line repeats 2 times.
  45. 11:19:04 T:4488 M:967000064  NOTICE: Additional mode: 1152x864 @ 60.00 - Full Screen
  46. 11:19:04 T:4488 M:967020544  NOTICE: Previous line repeats 2 times.
  47. 11:19:04 T:4488 M:967020544  NOTICE: Additional mode: 1152x864 @ 59.94 - Full Screen
  48. 11:19:04 T:4488 M:967000064  NOTICE: Previous line repeats 2 times.
  49. 11:19:04 T:4488 M:967000064  NOTICE: Additional mode: 1176x664 @ 60.00 - Full Screen
  50. 11:19:04 T:4488 M:967000064  NOTICE: Previous line repeats 2 times.
  51. 11:19:04 T:4488 M:967000064  NOTICE: Additional mode: 1176x664 @ 59.94 - Full Screen
  52. 11:19:04 T:4488 M:967000064  NOTICE: Previous line repeats 2 times.
  53. 11:19:04 T:4488 M:967000064  NOTICE: Additional mode: 1280x720 @ 30.00i - Full Screen
  54. 11:19:04 T:4488 M:967000064  NOTICE: Previous line repeats 2 times.
  55. 11:19:04 T:4488 M:967000064  NOTICE: Additional mode: 1280x720 @ 29.97i - Full Screen
  56. 11:19:04 T:4488 M:967069696  NOTICE: Previous line repeats 2 times.
  57. 11:19:04 T:4488 M:967069696  NOTICE: Additional mode: 1280x720 @ 60.00 - Full Screen
  58. 11:19:04 T:4488 M:967139328  NOTICE: Additional mode: 1280x720 @ 59.94 - Full Screen
  59. 11:19:04 T:4488 M:967208960  NOTICE: Additional mode: 1280x768 @ 30.00i - Full Screen
  60. 11:19:04 T:4488 M:967000064  NOTICE: Previous line repeats 2 times.
  61. 11:19:04 T:4488 M:967000064  NOTICE: Additional mode: 1280x768 @ 29.97i - Full Screen
  62. 11:19:04 T:4488 M:967000064  NOTICE: Previous line repeats 2 times.
  63. 11:19:04 T:4488 M:967000064  NOTICE: Additional mode: 1280x768 @ 60.00 - Full Screen
  64. 11:19:04 T:4488 M:967000064  NOTICE: Previous line repeats 2 times.
  65. 11:19:04 T:4488 M:967000064  NOTICE: Additional mode: 1280x768 @ 59.94 - Full Screen
  66. 11:19:04 T:4488 M:967000064  NOTICE: Previous line repeats 2 times.
  67. 11:19:04 T:4488 M:967000064  NOTICE: Additional mode: 1280x800 @ 30.00i - Full Screen
  68. 11:19:04 T:4488 M:967000064  NOTICE: Previous line repeats 2 times.
  69. 11:19:04 T:4488 M:967000064  NOTICE: Additional mode: 1280x800 @ 29.97i - Full Screen
  70. 11:19:04 T:4488 M:967000064  NOTICE: Previous line repeats 2 times.
  71. 11:19:04 T:4488 M:967000064  NOTICE: Additional mode: 1280x800 @ 60.00 - Full Screen
  72. 11:19:04 T:4488 M:967000064  NOTICE: Previous line repeats 2 times.
  73. 11:19:04 T:4488 M:967000064  NOTICE: Additional mode: 1280x800 @ 59.94 - Full Screen
  74. 11:19:04 T:4488 M:967000064  NOTICE: Previous line repeats 2 times.
  75. 11:19:04 T:4488 M:967000064  NOTICE: Additional mode: 1280x960 @ 30.00i - Full Screen
  76. 11:19:04 T:4488 M:967000064  NOTICE: Previous line repeats 2 times.
  77. 11:19:04 T:4488 M:967000064  NOTICE: Additional mode: 1280x960 @ 29.97i - Full Screen
  78. 11:19:04 T:4488 M:967000064  NOTICE: Previous line repeats 2 times.
  79. 11:19:04 T:4488 M:967000064  NOTICE: Additional mode: 1280x960 @ 60.00 - Full Screen
  80. 11:19:04 T:4488 M:967000064  NOTICE: Previous line repeats 2 times.
  81. 11:19:04 T:4488 M:967000064  NOTICE: Additional mode: 1280x960 @ 59.94 - Full Screen
  82. 11:19:04 T:4488 M:967004160  NOTICE: Previous line repeats 2 times.
  83. 11:19:04 T:4488 M:967004160  NOTICE: Additional mode: 1280x1024 @ 30.00i - Full Screen
  84. 11:19:04 T:4488 M:967000064  NOTICE: Previous line repeats 2 times.
  85. 11:19:04 T:4488 M:967000064  NOTICE: Additional mode: 1280x1024 @ 29.97i - Full Screen
  86. 11:19:04 T:4488 M:967000064  NOTICE: Previous line repeats 2 times.
  87. 11:19:04 T:4488 M:967000064  NOTICE: Additional mode: 1280x1024 @ 60.00 - Full Screen
  88. 11:19:04 T:4488 M:967000064  NOTICE: Previous line repeats 2 times.
  89. 11:19:04 T:4488 M:967000064  NOTICE: Additional mode: 1280x1024 @ 59.94 - Full Screen
  90. 11:19:04 T:4488 M:967000064  NOTICE: Previous line repeats 2 times.
  91. 11:19:04 T:4488 M:967000064  NOTICE: Additional mode: 1360x768 @ 30.00i - Full Screen
  92. 11:19:04 T:4488 M:967016448  NOTICE: Previous line repeats 2 times.
  93. 11:19:04 T:4488 M:967016448  NOTICE: Additional mode: 1360x768 @ 29.97i - Full Screen
  94. 11:19:04 T:4488 M:967000064  NOTICE: Previous line repeats 2 times.
  95. 11:19:04 T:4488 M:967000064  NOTICE: Additional mode: 1360x768 @ 60.00 - Full Screen
  96. 11:19:04 T:4488 M:967000064  NOTICE: Previous line repeats 2 times.
  97. 11:19:04 T:4488 M:967000064  NOTICE: Additional mode: 1360x768 @ 59.94 - Full Screen
  98. 11:19:04 T:4488 M:967000064  NOTICE: Previous line repeats 2 times.
  99. 11:19:04 T:4488 M:967000064  NOTICE: Additional mode: 1600x900 @ 30.00i - Full Screen
  100. 11:19:04 T:4488 M:967000064  NOTICE: Previous line repeats 2 times.
  101. 11:19:04 T:4488 M:967000064  NOTICE: Additional mode: 1600x900 @ 29.97i - Full Screen
  102. 11:19:04 T:4488 M:967024640  NOTICE: Previous line repeats 2 times.
  103. 11:19:04 T:4488 M:967024640  NOTICE: Additional mode: 1600x900 @ 60.00 - Full Screen
  104. 11:19:04 T:4488 M:967000064  NOTICE: Previous line repeats 2 times.
  105. 11:19:04 T:4488 M:967000064  NOTICE: Additional mode: 1600x900 @ 59.94 - Full Screen
  106. 11:19:04 T:4488 M:967000064  NOTICE: Previous line repeats 2 times.
  107. 11:19:04 T:4488 M:967000064  NOTICE: Additional mode: 1600x1024 @ 30.00i - Full Screen
  108. 11:19:04 T:4488 M:967000064  NOTICE: Previous line repeats 2 times.
  109. 11:19:04 T:4488 M:967000064  NOTICE: Additional mode: 1600x1024 @ 29.97i - Full Screen
  110. 11:19:04 T:4488 M:967000064  NOTICE: Previous line repeats 2 times.
  111. 11:19:04 T:4488 M:967000064  NOTICE: Additional mode: 1600x1024 @ 60.00 - Full Screen
  112. 11:19:04 T:4488 M:967028736  NOTICE: Previous line repeats 2 times.
  113. 11:19:04 T:4488 M:967028736  NOTICE: Additional mode: 1600x1024 @ 59.94 - Full Screen
  114. 11:19:04 T:4488 M:967000064  NOTICE: Previous line repeats 2 times.
  115. 11:19:04 T:4488 M:967000064  NOTICE: Additional mode: 1680x1050 @ 30.00i - Full Screen
  116. 11:19:04 T:4488 M:967000064  NOTICE: Previous line repeats 2 times.
  117. 11:19:04 T:4488 M:967000064  NOTICE: Additional mode: 1680x1050 @ 29.97i - Full Screen
  118. 11:19:04 T:4488 M:967000064  NOTICE: Previous line repeats 2 times.
  119. 11:19:04 T:4488 M:967000064  NOTICE: Additional mode: 1680x1050 @ 60.00 - Full Screen
  120. 11:19:04 T:4488 M:967000064  NOTICE: Previous line repeats 2 times.
  121. 11:19:04 T:4488 M:967000064  NOTICE: Additional mode: 1680x1050 @ 59.94 - Full Screen
  122. 11:19:04 T:4488 M:967024640  NOTICE: Previous line repeats 2 times.
  123. 11:19:04 T:4488 M:967024640  NOTICE: Additional mode: 1768x992 @ 30.00i - Full Screen
  124. 11:19:04 T:4488 M:967000064  NOTICE: Previous line repeats 2 times.
  125. 11:19:04 T:4488 M:967000064  NOTICE: Additional mode: 1768x992 @ 29.97i - Full Screen
  126. 11:19:04 T:4488 M:967000064  NOTICE: Previous line repeats 2 times.
  127. 11:19:04 T:4488 M:967000064  NOTICE: Additional mode: 1768x992 @ 60.00 - Full Screen
  128. 11:19:04 T:4488 M:967000064  NOTICE: Previous line repeats 2 times.
  129. 11:19:04 T:4488 M:967000064  NOTICE: Additional mode: 1768x992 @ 59.94 - Full Screen
  130. 11:19:04 T:4488 M:967000064  NOTICE: Previous line repeats 2 times.
  131. 11:19:04 T:4488 M:967000064  NOTICE: Additional mode: 1920x1080 @ 30.00i - Full Screen
  132. 11:19:04 T:4488 M:967000064  NOTICE: Additional mode: 1920x1080 @ 29.97i - Full Screen
  133. 11:19:04 T:4488 M:967000064  NOTICE: Additional mode: 1920x1080 @ 60.00 - Full Screen
  134. 11:19:04 T:4488 M:967020544  NOTICE: Additional mode: 1920x1080 @ 59.94 - Full Screen
  135. 11:19:04 T:4488 M:966508544  NOTICE: Additional mode: 1440x480 @ 60.00 - Full Screen
  136. 11:19:04 T:4488 M:966508544  NOTICE: Previous line repeats 2 times.
  137. 11:19:04 T:4488 M:966508544  NOTICE: Additional mode: 1440x480 @ 59.94 - Full Screen
  138. 11:19:04 T:4488 M:966508544  NOTICE: Previous line repeats 2 times.
  139. 11:19:04 T:4488 M:966508544  NOTICE: Additional mode: 1440x480 @ 29.97i - Full Screen
  140. 11:19:04 T:4488 M:966508544  NOTICE: Additional mode: 1440x480 @ 30.00i - Full Screen
  141. 11:19:04 T:4488 M:966508544  NOTICE: Additional mode: 1786x990 @ 30.00i - Full Screen
  142. 11:19:04 T:4488 M:966508544  NOTICE: Previous line repeats 2 times.
  143. 11:19:04 T:4488 M:966508544  NOTICE: Additional mode: 1786x990 @ 29.97i - Full Screen
  144. 11:19:04 T:4488 M:966524928  NOTICE: Previous line repeats 2 times.
  145. 11:19:04 T:4488 M:966524928  NOTICE: Additional mode: 1786x990 @ 60.00 - Full Screen
  146. 11:19:04 T:4488 M:966508544  NOTICE: Previous line repeats 2 times.
  147. 11:19:04 T:4488 M:966508544  NOTICE: Additional mode: 1786x990 @ 59.94 - Full Screen
  148. 11:19:04 T:4488 M:967507968  NOTICE: Previous line repeats 2 times.
  149. 11:19:04 T:4488 M:967507968  NOTICE: load settings...
  150. 11:19:04 T:4488 M:967692288  NOTICE: special://profile/ is mapped to: special://masterprofile/
  151. 11:19:04 T:4488 M:967688192  NOTICE: loading special://masterprofile/guisettings.xml
  152. 11:19:04 T:4488 M:966193152  NOTICE: Getting hardware information now...
  153. 11:19:04 T:4488 M:966193152  NOTICE: Checking resolution 12
  154. 11:19:04 T:4488 M:965722112  NOTICE: Loading player core factory settings from special://xbmc/system/playercorefactory.xml.
  155. 11:19:04 T:4488 M:965595136  NOTICE: Loaded playercorefactory configuration
  156. 11:19:04 T:4488 M:965566464  NOTICE: Loading player core factory settings from special://masterprofile/playercorefactory.xml.
  157. 11:19:04 T:4488 M:965566464  NOTICE: special://masterprofile/playercorefactory.xml does not exist. Skipping.
  158. 11:19:04 T:4488 M:965558272  NOTICE: Loaded advancedsettings.xml from special://profile/advancedsettings.xml
  159. 11:19:04 T:4488 M:965550080  NOTICE: Contents of special://profile/advancedsettings.xml are...
  160.                                             <advancedsettings>
  161.                                               <navigatevirtualkeyboard>true</navigatevirtualkeyboard>
  162.                                               <videolibrary>
  163.                                                 <cleanonupdate>true</cleanonupdate>
  164.                                                 <hideallitems>true</hideallitems>
  165.                                                 <hideemptyseries>false</hideemptyseries>
  166.                                                 <recentlyaddeditems>250</recentlyaddeditems>
  167.                                               </videolibrary>
  168.                                               <myvideos>
  169.                                                 <extractthumb>false</extractthumb>
  170.                                               </myvideos>
  171.                                               <sorttokens>
  172.                                                 <token separators="">&quot;</token>
  173.                                               </sorttokens>
  174.                                               <tvshowmatching>
  175.                                                 <regexp>\[[Ss]([0-9]+)\]_\[[Ee]([0-9]+)([^\\/]*)</regexp>
  176.                                                 <regexp>[\._ \-]([0-9]+)x([0-9]+)([^\\/]*)</regexp>
  177.                                                 <regexp>[\._ \-][Ss]([0-9]+)[\.\-]?[Ee]([0-9]+)([^\\/]*)</regexp>
  178.                                                 <regexp>[\._ \-]([0-9]+)([0-9][0-9])([\._ \-][^\\/]*)</regexp>
  179.                                               </tvshowmatching>
  180.                                             </advancedsettings>
  181. 11:19:04 T:4488 M:965517312  NOTICE: Getting hardware information now...
  182. 11:19:04 T:4488 M:965517312  NOTICE: Checking resolution 12
  183. 11:19:04 T:4488 M:965517312  NOTICE: Default DVD Player: dvdplayer
  184. 11:19:04 T:4488 M:965517312  NOTICE: Default Video Player: dvdplayer
  185. 11:19:04 T:4488 M:965517312  NOTICE: Default Audio Player: paplayer
  186. 11:19:04 T:4488 M:965517312  NOTICE: Enabled debug logging due to GUI setting (2)
  187. 11:19:04 T:4488 M:966418432  NOTICE: Loading media sources from special://masterprofile/sources.xml
  188. 11:19:04 T:4488 M:966426624    INFO: creating subdirectories
  189. 11:19:04 T:4488 M:966426624    INFO: userdata folder: special://masterprofile/
  190. 11:19:04 T:4488 M:966426624    INFO: recording folder:
  191. 11:19:04 T:4488 M:966426624    INFO: screenshots folder:C:\Users\Kevin\Other Stuff\XBMC\Screen Shot\
  192. 11:19:04 T:4488 M:966426624    INFO: thumbnails folder: special://masterprofile/Thumbnails
  193. 11:19:04 T:4488 M:966426624    INFO: load language info file: special://xbmc/language/English/langinfo.xml
  194. 11:19:04 T:4488 M:966414336    INFO: load language file:special://xbmc/language/English/strings.xml
  195. 11:19:04 T:4488 M:966266880   DEBUG: Win32DllLoader::Load(special://xbmcbin/system/cpluff.dll)
  196. 11:19:04 T:4488 M:966115328   DEBUG: Win32DllLoader::Load(special://xbmcbin/system/libexpat.dll)
  197. 11:19:04 T:4488 M:965238784   DEBUG: ADDON: cpluff: 'Plug-in script.games.rom.collection.browser has been installed.'
  198. 11:19:04 T:4488 M:965238784   DEBUG: ADDON: cpluff: 'Plug-in script.xbmc.subtitles has been installed.'
  199. 11:19:04 T:4488 M:965238784   DEBUG: ADDON: cpluff: 'Plug-in repository.googlecode.dandar3-xbmc-addons has been installed.'
  200. 11:19:04 T:4488 M:965238784   DEBUG: ADDON: cpluff: 'Plug-in metadata.albums.allmusic.com has been installed.'
  201. 11:19:04 T:4488 M:965238784   DEBUG: ADDON: cpluff: 'Plug-in repository.xbmc.org has been installed.'
  202. 11:19:04 T:4488 M:965238784   DEBUG: ADDON: cpluff: 'Plug-in screensaver.xbmc.builtin.black has been installed.'
  203. 11:19:04 T:4488 M:965238784   DEBUG: ADDON: cpluff: 'Plug-in screensaver.rsxs.euphoria has been installed.'
  204. 11:19:04 T:4488 M:965238784   DEBUG: ADDON: cpluff: 'Plug-in repository.bluecop.xbmc-plugins has been installed.'
  205. 11:19:04 T:4488 M:965238784   DEBUG: ADDON: cpluff: 'Plug-in plugin.video.youtube.beta has been installed.'
  206. 11:19:04 T:4488 M:965238784   DEBUG: ADDON: cpluff: 'Plug-in visualization.projectm has been installed.'
  207. 11:19:04 T:4488 M:965238784   DEBUG: ADDON: cpluff: 'Plug-in script.module.simplejson has been installed.'
  208. 11:19:04 T:4488 M:965238784   DEBUG: ADDON: cpluff: 'Plug-in screensaver.xbmc.builtin.dim has been installed.'
  209. 11:19:04 T:4488 M:965238784   DEBUG: ADDON: cpluff: 'Plug-in script.favourites has been installed.'
  210. 11:19:04 T:4488 M:965238784   DEBUG: ADDON: cpluff: 'Plug-in net.rieter.xot.repository has been installed.'
  211. 11:19:04 T:4488 M:965238784   DEBUG: ADDON: cpluff: 'Plug-in metadata.themoviedb.org has been installed.'
  212. 11:19:04 T:4488 M:965238784   DEBUG: ADDON: cpluff: 'Plug-in metadata.artists.allmusic.com has been installed.'
  213. 11:19:04 T:4488 M:965238784   DEBUG: ADDON: cpluff: 'Plug-in xbmc.metadata has been installed.'
  214. 11:19:04 T:4488 M:965238784   DEBUG: ADDON: cpluff: 'Plug-in plugin.video.mtvn has been installed.'
  215. 11:19:04 T:4488 M:965238784   DEBUG: ADDON: cpluff: 'Plug-in skin.confluence has been installed.'
  216. 11:19:04 T:4488 M:965238784   DEBUG: ADDON: cpluff: 'Plug-in repository.queeup has been installed.'
  217. 11:19:04 T:4488 M:965238784   DEBUG: ADDON: cpluff: 'Plug-in skin.night has been installed.'
  218. 11:19:04 T:4488 M:965238784   DEBUG: ADDON: cpluff: 'Plug-in script.cu.lyrics has been installed.'
  219. 11:19:04 T:4488 M:965238784   DEBUG: ADDON: cpluff: 'Plug-in plugin.video.fox.news has been installed.'
  220. 11:19:04 T:4488 M:965238784   DEBUG: ADDON: cpluff: 'Plug-in visualization.glspectrum has been installed.'
  221. 11:19:04 T:4488 M:965238784   DEBUG: ADDON: cpluff: 'Plug-in xbmc.gui has been installed.'
  222. 11:19:04 T:4488 M:965238784   DEBUG: ADDON: cpluff: 'Plug-in visualization.milkdrop has been installed.'
  223. 11:19:04 T:4488 M:965238784   DEBUG: ADDON: cpluff: 'Plug-in script.module.pil has been installed.'
  224. 11:19:04 T:4488 M:965238784   DEBUG: ADDON: cpluff: 'Plug-in visualization.dxspectrum has been installed.'
  225. 11:19:04 T:4488 M:965238784   DEBUG: ADDON: cpluff: 'Plug-in script.logo-downloader has been installed.'
  226. 11:19:04 T:4488 M:965238784   DEBUG: ADDON: cpluff: 'Plug-in xbmc.core has been installed.'
  227. 11:19:04 T:4488 M:965238784   DEBUG: ADDON: cpluff: 'Plug-in script.recentlyadded has been installed.'
  228. 11:19:04 T:4488 M:965238784   DEBUG: ADDON: cpluff: 'Plug-in plugin.video.youtube has been installed.'
  229. 11:19:04 T:4488 M:965238784   DEBUG: ADDON: cpluff: 'Plug-in screensaver.xbmc.builtin.slideshow has been installed.'
  230. 11:19:04 T:4488 M:965238784   DEBUG: ADDON: cpluff: 'Plug-in skin.MiniMeedia Waffa! has been installed.'
  231. 11:19:04 T:4488 M:965238784   DEBUG: ADDON: cpluff: 'Plug-in skin.influence has been installed.'
  232. 11:19:04 T:4488 M:965238784   DEBUG: ADDON: cpluff: 'Plug-in script.audio.grooveshark has been installed.'
  233. 11:19:04 T:4488 M:965238784   DEBUG: ADDON: cpluff: 'Plug-in plugin.program.SABnzbd has been installed.'
  234. 11:19:04 T:4488 M:965238784   DEBUG: ADDON: cpluff: 'Plug-in metadata.common.htbackdrops.com has been installed.'
  235. 11:19:04 T:4488 M:965238784   DEBUG: ADDON: cpluff: 'Plug-in metadata.tvdb.com has been installed.'
  236. 11:19:04 T:4488 M:965238784   DEBUG: ADDON: cpluff: 'Plug-in metadata.common.allmusic.com has been installed.'
  237. 11:19:04 T:4488 M:965238784   DEBUG: ADDON: cpluff: 'Plug-in metadata.allmusic.com has been installed.'
  238. 11:19:04 T:4488 M:965238784   DEBUG: ADDON: cpluff: 'Plug-in weather.xbmc.builtin has been installed.'
  239. 11:19:04 T:4488 M:965238784   DEBUG: ADDON: cpluff: 'Plug-in plugin.video.apple.movie.trailers.lite has been installed.'
  240. 11:19:04 T:4488 M:965238784   DEBUG: ADDON: cpluff: 'Plug-in metadata.common.last.fm has been installed.'
  241. 11:19:04 T:4488 M:965238784   DEBUG: ADDON: cpluff: 'Plug-in metadata.common.themoviedb.org has been installed.'
  242. 11:19:04 T:4488 M:965238784   DEBUG: ADDON: cpluff: 'Plug-in metadata.common.dtrailer.com has been installed.'
  243. 11:19:04 T:4488 M:965238784   DEBUG: ADDON: cpluff: 'Plug-in xbmc.python has been installed.'
  244. 11:19:04 T:4488 M:965238784   DEBUG: ADDON: cpluff: 'Plug-in script.module.elementtree has been installed.'
  245. 11:19:04 T:4488 M:965238784   DEBUG: ADDON: cpluff: 'Plug-in xbmc.addon has been installed.'
  246. 11:19:04 T:4488 M:965238784   DEBUG: ADDON: cpluff: 'Plug-in visualization.waveform has been installed.'
  247. 11:19:04 T:4488 M:965238784   DEBUG: ADDON: cpluff: 'Plug-in screensaver.rsxs.plasma has been installed.'
  248. 11:19:04 T:4488 M:965238784   DEBUG: ADDON: cpluff: 'Plug-in script.module.pysqlite has been installed.'
  249. 11:19:04 T:4488 M:965238784   DEBUG: ADDON: cpluff: 'Plug-in metadata.mtv.com has been installed.'
  250. 11:19:04 T:4488 M:965238784   DEBUG: ADDON: cpluff: 'Plug-in visualization.itunes has been installed.'
  251. 11:19:04 T:4488 M:965238784   DEBUG: ADDON: cpluff: 'Plug-in metadata.common.hdtrailers.net has been installed.'
  252. 11:19:04 T:4488 M:965238784   DEBUG: ADDON: cpluff: 'Not all directories were successfully scanned.'
  253. 11:19:04 T:1940 M:965226496   DEBUG: thread start, auto delete: 0
  254. 11:19:04 T:4488 M:964685824   DEBUG: CWinSystemWin32::ResizeInternal - resizing due to size change (0,0,1786,990 fullscreen)->(0,0,1786,990 fullscreen)
  255. 11:19:04 T:4488 M:964681728   DEBUG: CWinEventsWin32::WndProcWindow is active
  256. 11:19:04 T:4488 M:964612096   DEBUG: CWinEventsWin32::WndProcWindow gained focus
  257. 11:19:04 T:4488 M:964608000   DEBUG: CRenderSystemDX::InitRenderSystem - trying D3D9Ex...
  258. 11:19:04 T:4488 M:964395008   DEBUG: CRenderSystemDX::InitRenderSystem - using D3D9Ex
  259. 11:19:04 T:4488 M:963870720   DEBUG: CRenderSystemDX::CreateDevice on adapter 0
  260. 11:19:04 T:4488 M:934813696   DEBUG: CRenderSystemDX::CreateDevice - adapter 0: nvd3dum.dll, NVIDIA GeForce 9400   , VendorId 4318, DeviceId 2154
  261. 11:19:04 T:4488 M:934809600   DEBUG: CRenderSystemDX::CreateDevice - using D3DCAPS2_DYNAMICTEXTURES
  262. 11:19:04 T:4488 M:934809600   DEBUG: CRenderSystemDX::CreateDevice - texture caps: 0x0001ECC5
  263. 11:19:04 T:4488 M:934809600   DEBUG: CRenderSystemDX::CreateDevice - RENDER_CAPS_DXT
  264. 11:19:04 T:4488 M:934809600   DEBUG: CRenderSystemDX::CreateDevice - RENDER_CAPS_NPOT
  265. 11:19:04 T:4488 M:934809600   DEBUG: CRenderSystemDX::CreateDevice - RENDER_CAPS_DXT_NPOT
  266. 11:19:04 T:4488 M:934289408   DEBUG: CWinSystemWin32::SetFullScreen (true fullscreen) on screen 0 with size 1786x990, refresh 30.000000i
  267. 11:19:04 T:4488 M:932986880    INFO: load default splash image: C:\Program Files (x86)\XBMC\media\Splash.png
  268. 11:19:04 T:4488 M:932884480   DEBUG: Win32DllLoader::Load(special://xbmcbin/system/ImageLib.dll)
  269. 11:19:04 T:4488 M:929603584    INFO: load keymapping
  270. 11:19:04 T:4488 M:929538048    INFO: Loading special://xbmc/system/keymaps/gamepad.xml
  271. 11:19:04 T:4488 M:929505280    INFO: Loading special://xbmc/system/keymaps/joystick.Alienware.Dual.Compatible.Controller.xml
  272. 11:19:04 T:4488 M:929452032    INFO: Loading special://xbmc/system/keymaps/joystick.AppleRemote.xml
  273. 11:19:04 T:4488 M:929439744    INFO: Loading special://xbmc/system/keymaps/joystick.Harmony.xml
  274. 11:19:04 T:4488 M:929415168    INFO: Loading special://xbmc/system/keymaps/joystick.Interact.AxisPad.xml
  275. 11:19:04 T:4488 M:929406976    INFO: Loading special://xbmc/system/keymaps/joystick.Logitech.RumblePad.2.xml
  276. 11:19:04 T:4488 M:929398784    INFO: Loading special://xbmc/system/keymaps/joystick.Microsoft.Xbox.360.Controller.xml
  277. 11:19:04 T:4488 M:929382400    INFO: Loading special://xbmc/system/keymaps/joystick.Microsoft.Xbox.Controller.S.xml
  278. 11:19:04 T:4488 M:929357824    INFO: Loading special://xbmc/system/keymaps/joystick.PS3.Remote.Keyboard.xml
  279. 11:19:04 T:4488 M:929345536    INFO: Loading special://xbmc/system/keymaps/joystick.WiiRemote.xml
  280. 11:19:04 T:4488 M:929333248    INFO: Loading special://xbmc/system/keymaps/keyboard.xml
  281. 11:19:04 T:4488 M:929312768    INFO: Loading special://xbmc/system/keymaps/remote.xml
  282. 11:19:04 T:4488 M:929267712    INFO: Loading special://xbmc/system/IRSSmap.xml
  283. 11:19:04 T:4488 M:929263616    INFO: * Adding remote mapping for device 'Microsoft MCE'
  284. 11:19:04 T:4488 M:929263616    INFO: * Adding remote mapping for device 'Abstract'
  285. 11:19:04 T:4488 M:929263616   DEBUG: CButtonTranslator::Load - no userdata IRSSmap.xml found, skipping
  286. 11:19:04 T:4488 M:929263616    INFO: GUI format 1786x990 1786x990 @ 30.00i - Full Screen
  287. 11:19:04 T:4488 M:929259520  NOTICE: initializing playlistplayer
  288. 11:19:04 T:4488 M:929259520  NOTICE: DONE initializing playlistplayer
  289. 11:19:04 T:4488 M:929259520   DEBUG: DPMS: supported power-saving modes: OFF STANDBY
  290. 11:19:04 T:4488 M:928788480    INFO:   delete old skin...
  291. 11:19:04 T:4488 M:926932992   DEBUG: ------ Window Deinit (Pointer.xml) ------
  292. 11:19:04 T:4488 M:926928896   DEBUG: ------ Window Deinit (DialogMuteBug.xml) ------
  293. 11:19:04 T:4488 M:926916608    INFO:   load skin from:C:\Program Files (x86)\XBMC\addons\skin.MiniMeedia Waffa!
  294. 11:19:04 T:4488 M:926916608    INFO: Default 4:3 resolution directory is C:\Program Files (x86)\XBMC\addons\skin.MiniMeedia Waffa!\720p
  295. 11:19:04 T:4488 M:926916608    INFO: Default 16:9 resolution directory is C:\Program Files (x86)\XBMC\addons\skin.MiniMeedia Waffa!\720p
  296. 11:19:04 T:4488 M:926916608    INFO: Loading skin includes from C:\Program Files (x86)\XBMC\addons\skin.MiniMeedia Waffa!\720p\includes.xml
  297. 11:19:04 T:4488 M:922705920    INFO:   load fonts for skin...
  298. 11:19:04 T:4488 M:922689536    INFO: Loading colors from C:\Program Files (x86)\XBMC\addons\skin.MiniMeedia Waffa!\colors\red.xml
  299. 11:19:04 T:4488 M:922689536    INFO: Loading fonts from C:\Program Files (x86)\XBMC\addons\skin.MiniMeedia Waffa!\720p\Font.xml
  300. 11:19:04 T:4488 M:916742144    INFO:   load new skin...
  301. 11:19:04 T:4488 M:916742144    INFO: Loading skin file: Home.xml
  302. 11:19:04 T:4488 M:916357120    INFO: Loading user windows, path C:\Program Files (x86)\XBMC\addons\skin.MiniMeedia Waffa!\720p
  303. 11:19:04 T:4488 M:916254720   DEBUG: Load Skin XML: 101.47ms
  304. 11:19:04 T:4488 M:916254720    INFO:   initialize new skin...
  305. 11:19:04 T:4488 M:916254720    INFO: Loading skin file: Pointer.xml
  306. 11:19:04 T:4488 M:916230144    INFO: Loading skin file: DialogVolumeBar.xml
  307. 11:19:04 T:4488 M:916226048    INFO: Loading skin file: DialogSeekBar.xml
  308. 11:19:04 T:4488 M:916221952    INFO: Loading skin file: DialogKaiToast.xml
  309. 11:19:04 T:4488 M:916217856    INFO: Loading skin file: DialogMuteBug.xml
  310. 11:19:04 T:4488 M:916213760    INFO: Loading skin file: DialogVolumeBar.xml
  311. 11:19:04 T:4488 M:916213760    INFO: Loading skin file: DialogKaiToast.xml
  312. 11:19:04 T:4488 M:916213760    INFO: Loading skin file: DialogSeekBar.xml
  313. 11:19:04 T:4488 M:916213760    INFO: Loading skin file: DialogBusy.xml
  314. 11:19:04 T:4488 M:916201472   DEBUG: CGUIAudioManager::Initialize
  315. 11:19:04 T:4488 M:916201472   DEBUG: CAudioContext::SetActiveDevice - SetActiveDevice from 1 to 2
  316. 11:19:04 T:4488 M:916201472   DEBUG: CAudioContext::RemoveActiveDevice - Removing device 1
  317. 11:19:04 T:4488 M:915832832   DEBUG: CWDSound::direct_sound_enumerator_member_callback - found Device: Primary Sound Driver
  318. 11:19:04 T:4488 M:915832832   DEBUG: CWDSound::direct_sound_enumerator_member_callback - found Device: NVIDIA HDMI Out (NVIDIA High Definition Audio)
  319. 11:19:04 T:4488 M:915832832   DEBUG: CWDSound::direct_sound_enumerator_member_callback - found Device: Digital Audio (S/PDIF) (2- High Definition Audio Device)
  320. 11:19:04 T:4488 M:915832832   DEBUG: CAudioContext::SetActiveDevice - selecting NVIDIA HDMI Out (NVIDIA High Definition Audio) as output devices
  321. 11:19:04 T:4488 M:915697664    INFO: Loading special://xbmc/sounds/Awesome, Inc/sounds.xml
  322. 11:19:04 T:4488 M:915689472    INFO:   skin loaded...
  323. 11:19:04 T:4488 M:915689472   DEBUG: Activating window ID: 12999
  324. 11:19:04 T:4488 M:915685376   DEBUG: Checking if window ID 12999 is locked.
  325. 11:19:04 T:4488 M:911396864   DEBUG: ------ Window Init (Startup.xml) ------
  326. 11:19:04 T:4488 M:911396864    INFO: Loading skin file: Startup.xml
  327. 11:19:04 T:4488 M:911392768    INFO: removing tempfiles
  328. 11:19:04 T:4488 M:911392768  NOTICE: initialize done
  329. 11:19:04 T:4488 M:911392768  NOTICE: Running the application...
  330. 11:19:04 T:4488 M:911392768   DEBUG: CApplication::ExecuteXBMCAction : Translating ReplaceWindow(Home)
  331. 11:19:04 T:4488 M:911392768   DEBUG: CApplication::ExecuteXBMCAction : To ReplaceWindow(Home)
  332. 11:19:04 T:4488 M:911388672   DEBUG: Activating window ID: 10000
  333. 11:19:04 T:4488 M:911388672   DEBUG: Checking if window ID 10000 is locked.
  334. 11:19:04 T:4488 M:911388672   DEBUG: ------ Window Deinit (Startup.xml) ------
  335. 11:19:04 T:4488 M:911388672   DEBUG: ------ Window Init (Home.xml) ------
  336. 11:19:04 T:4488 M:911286272   DEBUG: XBPython::Process - no profile autoexec.py (C:\Program Files (x86)\XBMC\portable_data\userdata\autoexec.py) found, skipping
  337. 11:19:04 T:4488 M:911273984   DEBUG: CNetwork::NetworkMessage - Starting network services
  338. 11:19:04 T:4488 M:911265792  NOTICE: ES: Starting event server
  339. 11:19:04 T:1592 M:911171584   DEBUG: thread start, auto delete: 0
  340. 11:19:04 T:1592 M:911163392  NOTICE: ES: Starting UDP Event server on 127.0.0.1:9777
  341. 11:19:04 T:4488 M:911151104   DEBUG: CLastfmScrobbler: Clearing session.
  342. 11:19:04 T:4488 M:911142912   DEBUG: CLibrefmScrobbler: Clearing session.
  343. 11:19:04 T:1592 M:911130624  NOTICE: UDP: Listening on port 9777
  344. 11:19:04 T:4740 M:911122432   DEBUG: thread start, auto delete: 0
  345. 11:19:04 T:4740 M:911101952    INFO: JSONRPC Server: Successfully initialized
  346. 11:19:04 T:4140 M:910790656   DEBUG: thread start, auto delete: 1
  347. 11:19:04 T:4536 M:910442496   DEBUG: thread start, auto delete: 0
  348. 11:19:05 T:4536 M:910430208   DEBUG: Win32DllLoader::Load(special://xbmcbin/system/libcurl.dll)
  349. 11:19:05 T:4536 M:910127104   DEBUG: Win32DllLoader::Load(special://xbmcbin/system/libidn-11.dll)
  350. 11:19:05 T:4536 M:910098432   DEBUG: Win32DllLoader::Load(special://xbmcbin/system/libeay32.dll)
  351. 11:19:05 T:4536 M:910069760   DEBUG: Win32DllLoader::Load(special://xbmcbin/system/libssl32.dll)
  352. 11:19:05 T:4536 M:909688832   DEBUG: Win32DllLoader::Load(ADVAPI32.DLL)
  353. 11:19:05 T:4536 M:909688832   DEBUG: Win32DllLoader::Load(KERNEL32.DLL)
  354. 11:19:05 T:4536 M:909688832   DEBUG: Win32DllLoader::Load(NETAPI32.DLL)
  355. 11:19:05 T:4536 M:909377536   DEBUG: FreeLibrary(NETAPI32.DLL) -> 05BF5540
  356. 11:19:05 T:4536 M:909377536   DEBUG: Win32DllLoader::Unload NETAPI32.DLL
  357. 11:19:05 T:4488 M:908136448   DEBUG: CApplication::ExecuteXBMCAction : Translating RunScript(script.recentlyadded,limit=4)
  358. 11:19:05 T:4488 M:908136448   DEBUG: CApplication::ExecuteXBMCAction : To RunScript(script.recentlyadded,limit=4)
  359. 11:19:05 T:4488 M:908132352    INFO: initializing python engine.
  360. 11:19:05 T:4488 M:908132352   DEBUG: Win32DllLoader::Load(special://xbmcbin/system/python/python24.dll)
  361. 11:19:05 T:4536 M:907489280   DEBUG: FreeLibrary(ADVAPI32.DLL) -> 05BF3470
  362. 11:19:05 T:4536 M:907489280   DEBUG: Win32DllLoader::Unload ADVAPI32.DLL
  363. 11:19:05 T:4536 M:907407360   DEBUG: Win32DllLoader::Load(USER32.DLL)
  364. 11:19:05 T:4536 M:907407360   DEBUG: FreeLibrary(USER32.DLL) -> 05BF3470
  365. 11:19:05 T:4536 M:907407360   DEBUG: Win32DllLoader::Unload USER32.DLL
  366. 11:19:05 T:504 M:905854976   DEBUG: thread start, auto delete: 1
  367. 11:19:05 T:504 M:905330688   DEBUG: Re-caching image 'C:\Users\Kevin\Other Stuff\XBMC\Skins\Background Images\tv\82046-3.jpg' as '7/7c966e35.jpg' full size
  368. 11:19:05 T:504 M:905334784    INFO: Caching image from: C:\Users\Kevin\Other Stuff\XBMC\Skins\Background Images\tv\82046-3.jpg to special://masterprofile/Thumbnails/7/7c966e35.jpg
  369. 11:19:05 T:4488 M:906432512   DEBUG:   msg: 'import site' failed; use -v for traceback
  370. 11:19:05 T:504 M:906854400   ERROR: XFILE::CFile::Delete - Error deleting file C:\Program Files (x86)\XBMC\portable_data\userdata\Thumbnails\7\7c966e35.jpg
  371. 11:19:05 T:504 M:905486336   ERROR: XFILE::CFile::Delete - Error deleting file special://masterprofile/Thumbnails/7/7c966e35.jpg
  372. 11:19:05 T:4488 M:904364032   DEBUG: new python thread created. id=1
  373. 11:19:05 T:4488 M:904048640   DEBUG: CApplication::ExecuteXBMCAction : Translating SetFocus(300)
  374. 11:19:05 T:4488 M:904048640   DEBUG: CApplication::ExecuteXBMCAction : To SetFocus(300)
  375. 11:19:05 T:504 M:903524352    INFO: WEATHER: Downloading weather
  376. 11:19:05 T:4892 M:902995968   DEBUG: thread start, auto delete: 0
  377. 11:19:05 T:4892 M:902995968   DEBUG: Python thread: start processing
  378. 11:19:05 T:4892 M:902393856   DEBUG:   msg: 'import site' failed; use -v for traceback
  379. 11:19:05 T:4892 M:902119424  NOTICE: -->Python Interpreter Initialized<--
  380. 11:19:05 T:4892 M:902119424   DEBUG: XBPyThread::Process - The source file to load is C:\Program Files (x86)\XBMC\portable_data\addons\script.recentlyadded\default.py
  381. 11:19:05 T:4892 M:901832704   DEBUG: XBPyThread::Process - Setting the Python path to C:\Program Files (x86)\XBMC\portable_data\addons\script.recentlyadded;C:\Program Files (x86)\XBMC\portable_data\addons\script.module.simplejson\lib;C:\Program Files (x86)\XBMC\addons\script.module.pil\lib;C:\Program Files (x86)\XBMC\portable_data\addons\script.module.elementtree\lib;C:\Program Files (x86)\XBMC\addons\script.module.pysqlite\lib;special://xbmc/system/python/DLLs;special://xbmc/system/python/Lib;special://xbmcbin/system/python/python24.zip;special://xbmc/system/python\DLLs;special://xbmc/system/python\lib;special://xbmc/system/python\lib\plat-win;special://xbmc/system/python\lib\lib-tk;C:\Program Files (x86)\XBMC
  382. 11:19:05 T:4892 M:901832704   DEBUG: XBPyThread::Process - Entering source directory C:\Program Files (x86)\XBMC\portable_data\addons\script.recentlyadded
  383. 11:19:05 T:4892 M:899182592   DEBUG: LoadLibraryExA called with flags:
  384.                                              - LOAD_WITH_ALTERED_SEARCH_PATH
  385. 11:19:05 T:4892 M:899182592   DEBUG: Win32DllLoader::Load(special://xbmc/system/python/DLLs\_socket.pyd)
  386. 11:19:05 T:4892 M:896778240   DEBUG: LoadLibraryExA called with flags:
  387.                                              - LOAD_WITH_ALTERED_SEARCH_PATH
  388. 11:19:05 T:4892 M:896774144   DEBUG: Win32DllLoader::Load(special://xbmc/system/python/DLLs\_ssl.pyd)
  389. 11:19:05 T:4892 M:896675840   DEBUG: Win32DllLoader::Load(MSVCR71.dll)
  390. 11:19:05 T:4488 M:897282048   DEBUG: HttpApi Start command: SetResponseFormat  paras: SetResponseFormat
  391. 11:19:05 T:4488 M:893247488   DEBUG: HttpApi Start command: SetResponseFormat  paras: SetResponseFormat; OpenRecord;<record>
  392. 11:19:05 T:4488 M:892837888   DEBUG: HttpApi Start command: SetResponseFormat  paras: SetResponseFormat; CloseRecord;</record>
  393. 11:19:05 T:4140 M:895963136   DEBUG: CImageLoader::DoWork - took 323 ms to load special://masterprofile/Thumbnails/7/7c966e35.jpg
  394. 11:19:05 T:4488 M:895975424   DEBUG: HttpApi Start command: QueryVideoDatabase  paras: QueryVideoDatabase; select * from movieview order by idMovie desc limit 4
  395. 11:19:06 T:4536 M:897912832   DEBUG: FreeLibrary(KERNEL32.DLL) -> 05BF33D0
  396. 11:19:06 T:4536 M:898035712   DEBUG: Win32DllLoader::Unload KERNEL32.DLL
  397. 11:19:07 T:4536 M:898011136   DEBUG: Win32DllLoader::Load(secur32.dll)
  398. 11:19:07 T:4536 M:897916928   DEBUG: FileCurl::Open(078DFCBC) http://feeds.feedburner.com/tgfireice
  399. 11:19:07 T:4536 M:897892352    INFO: XCURL::DllLibCurlGlobal::easy_aquire - Created session to http://feeds.feedburner.com
  400. 11:19:07 T:504 M:897884160   DEBUG: FileCurl::Open(07E2FCAC) http://xoap.weather.com/weather/local/06906?cc=*&unit=m&dayf=4&prod=xoap&link=xoap&par=1004124588&key=079f24145f208494
  401. 11:19:07 T:504 M:897884160    INFO: XCURL::DllLibCurlGlobal::easy_aquire - Created session to http://xoap.weather.com
  402. 11:19:07 T:4488 M:897839104   DEBUG: HttpApi Start command: QueryVideoDatabase  paras: QueryVideoDatabase; select * from episodeview order by idepisode desc limit 4
  403. 11:19:07 T:4488 M:897667072   DEBUG: HttpApi Start command: QueryMusicDatabase  paras: QueryMusicDatabase; select * from songview order by idSong desc limit 4
  404. 11:19:07 T:4892 M:897617920    INFO: Scriptresult: Success
  405. 11:19:07 T:4892 M:897585152    INFO: Python script stopped
  406. 11:19:07 T:4892 M:897585152   DEBUG: Thread 4892 terminating
  407. 11:19:07 T:4488 M:897630208   DEBUG: python thread 1 destructed
  408. 11:19:07 T:504 M:896823296   DEBUG: FileCurl::Close(07E2FCAC) http://xoap.weather.com/weather/local/06906?cc=*&unit=m&dayf=4&prod=xoap&link=xoap&par=1004124588&key=079f24145f208494
  409. 11:19:07 T:504 M:896823296    INFO: WEATHER: Weather download successful
  410. 11:19:07 T:504 M:896811008   DEBUG: CZipManager::GetZipList - Processing zip://special%3a%2f%2fxbmc%2fmedia%2fweather%2ezip/
  411. 11:19:08 T:4536 M:893997056   DEBUG: FileCurl::Close(078DFCBC) http://feeds.feedburner.com/tgfireice
  412. 11:19:08 T:4536 M:893997056   DEBUG: Got rss feed: http://feeds.feedburner.com/tgfireice
  413. 11:19:08 T:4536 M:893992960   DEBUG: RSS feed encoding: UTF-8
  414. 11:19:08 T:4536 M:893992960   DEBUG: Parsed rss feed: http://feeds.feedburner.com/tgfireice
  415. 11:19:08 T:4536 M:893956096   DEBUG: FileCurl::Open(078DFCBC) http://feeds.feedburner.com/xbmc
  416. 11:19:08 T:4536 M:892518400   DEBUG: FileCurl::Close(078DFCBC) http://feeds.feedburner.com/xbmc
  417. 11:19:08 T:4536 M:892518400   DEBUG: Got rss feed: http://feeds.feedburner.com/xbmc
  418. 11:19:08 T:4536 M:892518400   DEBUG: RSS feed encoding: UTF-8
  419. 11:19:08 T:4536 M:892518400   DEBUG: Parsed rss feed: http://feeds.feedburner.com/xbmc
  420. 11:19:08 T:4536 M:892518400   DEBUG: Thread 4536 terminating
  421. 11:19:15 T:4140 M:893591552   DEBUG: Re-caching image 'C:\Users\Kevin\Other Stuff\XBMC\Skins\Background Images\tv\79501-18.jpg' as '5/510b64cc.jpg' full size
  422. 11:19:15 T:4140 M:893587456    INFO: Caching image from: C:\Users\Kevin\Other Stuff\XBMC\Skins\Background Images\tv\79501-18.jpg to special://masterprofile/Thumbnails/5/510b64cc.jpg
  423. 11:19:15 T:4140 M:893657088   ERROR: XFILE::CFile::Delete - Error deleting file C:\Program Files (x86)\XBMC\portable_data\userdata\Thumbnails\5\510b64cc.jpg
  424. 11:19:15 T:4140 M:893657088   ERROR: XFILE::CFile::Delete - Error deleting file special://masterprofile/Thumbnails/5/510b64cc.jpg
  425. 11:19:16 T:4488 M:886706176   DEBUG: CApplication::OnKey: 169 pressed, action is Left
  426. 11:19:16 T:504 M:886980608   DEBUG: CImageLoader::DoWork - took 274 ms to load special://masterprofile/Thumbnails/5/510b64cc.jpg
  427. 11:19:17 T:4488 M:893603840   DEBUG: CApplication::OnKey: 166 pressed, action is Up
  428. 11:19:17 T:4488 M:893558784   DEBUG: Previous line repeats 1 times.
  429. 11:19:17 T:4488 M:893558784    INFO: Python, unloading python24.dll because no scripts are running anymore
  430. 11:19:17 T:4488 M:893558784   DEBUG: XBPython::UnloadExtensionLibs, clearing python extension libraries
  431. 11:19:17 T:4488 M:893558784   DEBUG: Win32DllLoader::Unload DLLs\_socket.pyd
  432. 11:19:17 T:4488 M:893558784   DEBUG: FreeLibrary(python24.dll) -> 05BF3290
  433. 11:19:17 T:4488 M:893603840   DEBUG: Win32DllLoader::Unload DLLs\_ssl.pyd
  434. 11:19:17 T:4488 M:893603840   DEBUG: FreeLibrary(python24.dll) -> 05BF3290
  435. 11:19:17 T:4488 M:893603840   DEBUG: FreeLibrary(MSVCR71.dll) -> 05BF4C30
  436. 11:19:17 T:4488 M:893603840   DEBUG: Win32DllLoader::Unload MSVCR71.dll
  437. 11:19:17 T:4488 M:893874176   DEBUG: Win32DllLoader::Unload python24.dll
  438. 11:19:17 T:4488 M:894889984   DEBUG: CApplication::OnKey: 166 pressed, action is Up
  439. 11:19:20 T:4488 M:895418368   DEBUG: Previous line repeats 1 times.
  440. 11:19:20 T:4488 M:895418368   DEBUG: CApplication::OnKey: 11 pressed, action is Select
  441. 11:19:20 T:4488 M:895365120   DEBUG: CApplication::ExecuteXBMCAction : Translating ActivateWindow(MyVideoLibrary,Addons,return)
  442. 11:19:20 T:4488 M:895365120   DEBUG: CApplication::ExecuteXBMCAction : To ActivateWindow(MyVideoLibrary,Addons,return)
  443. 11:19:20 T:4488 M:895365120   DEBUG: Activating window ID: 10025
  444. 11:19:20 T:4488 M:895365120   DEBUG: Checking if window ID 10024 is locked.
  445. 11:19:20 T:4488 M:895365120   DEBUG: ------ Window Deinit (Home.xml) ------
  446. 11:19:21 T:4488 M:895205376   DEBUG: ------ Window Init (MyVideoNav.xml) ------
  447. 11:19:21 T:4488 M:895205376    INFO: Loading skin file: MyVideoNav.xml
  448. 11:19:21 T:4488 M:895004672   ERROR: Window Translator: Can't find window videoplaylists
  449. 11:19:21 T:4488 M:895004672   ERROR: Error evaluating boolean expression [Window.IsVisible(MyVideoFiles) | Window.IsVisible(MyVideoLibrary) | Window.IsVisible(MyVideoPlaylists)]
  450. 11:19:21 T:4488 M:895004672   ERROR: Window Translator: Can't find window musicplaylists
  451. 11:19:21 T:4488 M:895004672   ERROR: Error evaluating boolean expression [Window.IsVisible(MyMusicFiles) | Window.IsVisible(MyMusicLibrary) | Window.IsVisible(MyMusicPlaylists)]
  452. 11:19:22 T:4488 M:875339776   DEBUG: CGUIMediaWindow::GetDirectory (addons://sources/video/)
  453. 11:19:22 T:4488 M:875335680   DEBUG:   ParentPath = [addons://sources/video/]
  454. 11:19:22 T:4488 M:875192320 WARNING: XFILE::CVideoDatabaseDirectory::GetLabel - Unknown nodetype requested 0
  455. 11:19:22 T:700 M:875163648   DEBUG: thread start, auto delete: 0
  456. 11:19:22 T:700 M:875159552   DEBUG: Thread 700 terminating
  457. 11:19:24 T:4488 M:880353280   DEBUG: CApplication::OnKey: 166 pressed, action is Up
  458. 11:19:26 T:4488 M:880881664   DEBUG: CApplication::OnKey: 11 pressed, action is Select
  459. 11:19:26 T:4488 M:880734208   DEBUG: CGUIMediaWindow::GetDirectory (plugin://plugin.video.youtube.beta/)
  460. 11:19:26 T:4488 M:880734208   DEBUG:   ParentPath = [addons://sources/video/]
  461. 11:19:26 T:4140 M:880726016   DEBUG: XFILE::CPluginDirectory::StartScript - calling plugin You Tube Beta('plugin://plugin.video.youtube.beta/','0','')
  462. 11:19:26 T:4140 M:880726016    INFO: initializing python engine.
  463. 11:19:26 T:4140 M:880726016   DEBUG: Win32DllLoader::Load(special://xbmcbin/system/python/python24.dll)
  464. 11:19:26 T:4140 M:879853568   DEBUG:   msg: 'import site' failed; use -v for traceback
  465. 11:19:26 T:4140 M:879841280   DEBUG: new python thread created. id=2
  466. 11:19:26 T:4140 M:879824896   DEBUG: XFILE::CPluginDirectory::WaitOnScriptResult - waiting on the You Tube Beta plugin...
  467. 11:19:26 T:1372 M:879816704   DEBUG: thread start, auto delete: 0
  468. 11:19:26 T:1372 M:879808512   DEBUG: Python thread: start processing
  469. 11:19:26 T:1372 M:879718400   DEBUG:   msg: 'import site' failed; use -v for traceback
  470. 11:19:26 T:1372 M:879702016  NOTICE: -->Python Interpreter Initialized<--
  471. 11:19:26 T:1372 M:879702016   DEBUG: XBPyThread::Process - The source file to load is C:\Program Files (x86)\XBMC\portable_data\addons\plugin.video.youtube.beta\default.py
  472. 11:19:26 T:1372 M:879702016   DEBUG: XBPyThread::Process - Setting the Python path to C:\Program Files (x86)\XBMC\portable_data\addons\plugin.video.youtube.beta;C:\Program Files (x86)\XBMC\portable_data\addons\script.module.simplejson\lib;C:\Program Files (x86)\XBMC\addons\script.module.pil\lib;C:\Program Files (x86)\XBMC\portable_data\addons\script.module.elementtree\lib;C:\Program Files (x86)\XBMC\addons\script.module.pysqlite\lib;special://xbmc/system/python/DLLs;special://xbmc/system/python/Lib;special://xbmcbin/system/python/python24.zip;special://xbmc/system/python\DLLs;special://xbmc/system/python\lib;special://xbmc/system/python\lib\plat-win;special://xbmc/system/python\lib\lib-tk;C:\Program Files (x86)\XBMC
  473. 11:19:26 T:1372 M:879702016   DEBUG: XBPyThread::Process - Entering source directory C:\Program Files (x86)\XBMC\portable_data\addons\plugin.video.youtube.beta
  474. 11:19:26 T:1372 M:879173632   DEBUG: LoadLibraryExA called with flags:
  475.                                              - LOAD_WITH_ALTERED_SEARCH_PATH
  476. 11:19:26 T:1372 M:879173632   DEBUG: Win32DllLoader::Load(special://xbmc/system/python/DLLs\_socket.pyd)
  477. 11:19:26 T:1372 M:879128576   DEBUG: LoadLibraryExA called with flags:
  478.                                              - LOAD_WITH_ALTERED_SEARCH_PATH
  479. 11:19:26 T:1372 M:879128576   DEBUG: Win32DllLoader::Load(special://xbmc/system/python/DLLs\_ssl.pyd)
  480. 11:19:26 T:1372 M:879022080   DEBUG: Win32DllLoader::Load(MSVCR71.dll)
  481. 11:19:27 T:4488 M:876429312   DEBUG: ------ Window Init (DialogBusy.xml) ------
  482. 11:19:28 T:4140 M:880766976    INFO: Loading skin file: DialogProgress.xml
  483. 11:19:28 T:4140 M:880762880   DEBUG: ------ Window Init (DialogProgress.xml) ------
  484. 11:19:28 T:4488 M:880754688   DEBUG: ------ Window Init (DialogAddonSettings.xml) ------
  485. 11:19:28 T:4488 M:880754688    INFO: Loading skin file: DialogAddonSettings.xml
  486. 11:19:28 T:4488 M:881442816   DEBUG: ------ Window Deinit (DialogBusy.xml) ------
  487. 11:19:30 T:4488 M:881356800   DEBUG: CApplication::OnKey: 168 pressed, action is Right
  488. 11:19:31 T:4488 M:880771072   DEBUG: CApplication::OnKey: 167 pressed, action is Down
  489. 11:19:35 T:4488 M:880963584   DEBUG: Previous line repeats 10 times.
  490. 11:19:35 T:4488 M:880963584   DEBUG: CApplication::OnKey: 11 pressed, action is Select
  491. 11:19:35 T:4488 M:880922624   DEBUG: ------ Window Deinit (DialogAddonSettings.xml) ------
  492. 11:19:35 T:1372 M:880922624  NOTICE: YouTube login
  493. 11:19:35 T:1372 M:880910336  NOTICE: YouTube login data username <type 'str'> - Password <type 'str'>
  494. 11:19:35 T:1372 M:880906240  NOTICE: YouTube login connect
  495. 11:19:35 T:1372 M:880746496   DEBUG: Win32DllLoader::Load(ADVAPI32.DLL)
  496. 11:19:35 T:1372 M:880746496   DEBUG: Win32DllLoader::Load(KERNEL32.DLL)
  497. 11:19:35 T:1372 M:880746496   DEBUG: Win32DllLoader::Load(USER32.DLL)
  498. 11:19:35 T:1372 M:880746496   DEBUG: Win32DllLoader::Load(NETAPI32.DLL)
  499. 11:19:35 T:1372 M:880590848   DEBUG: FreeLibrary(NETAPI32.DLL) -> 05BF0F90
  500. 11:19:35 T:1372 M:880590848   DEBUG: Win32DllLoader::Unload NETAPI32.DLL
  501. 11:19:35 T:1372 M:880746496   DEBUG: FreeLibrary(ADVAPI32.DLL) -> 05BF0040
  502. 11:19:35 T:1372 M:880746496   DEBUG: Win32DllLoader::Unload ADVAPI32.DLL
  503. 11:19:35 T:1372 M:880746496   DEBUG: FreeLibrary(USER32.DLL) -> 05BF1080
  504. 11:19:35 T:1372 M:880746496   DEBUG: Win32DllLoader::Unload USER32.DLL
  505. 11:19:38 T:4488 M:880508928    INFO: XCURL::DllLibCurlGlobal::CheckIdle - Closing session to http://feeds.feedburner.com (easy=02B01470, multi=00297990)
  506. 11:19:38 T:4488 M:881639424    INFO: XCURL::DllLibCurlGlobal::CheckIdle - Closing session to http://xoap.weather.com (easy=02B10A10, multi=00297AA0)
  507. 11:19:38 T:4488 M:881541120   DEBUG: FreeLibrary(secur32.dll) -> 05BF33D0
  508. 11:19:38 T:4488 M:881541120   DEBUG: Win32DllLoader::Unload secur32.dll
  509. 11:19:46 T:504 M:887279616   DEBUG: Thread 504 terminating (autodelete)
  510. 11:19:58 T:4488 M:886939648   DEBUG: SECTION:UnloadDelayed(DLL: special://xbmcbin/system/ImageLib.dll)
  511. 11:19:58 T:4488 M:884248576   DEBUG: Win32DllLoader::Unload ImageLib.dll
  512. 11:20:08 T:4488 M:886546432   DEBUG: SECTION:UnloadDelayed(DLL: special://xbmcbin/system/libcurl.dll)
  513. 11:20:08 T:4488 M:885063680   DEBUG: Win32DllLoader::Unload libcurl.dll
  514. 11:20:08 T:4488 M:885100544   DEBUG: FreeLibrary(libidn-11.dll) -> 05BF3510
  515. 11:20:08 T:4488 M:885186560   DEBUG: Win32DllLoader::Unload libidn-11.dll
  516. 11:20:08 T:4488 M:888918016   DEBUG: FreeLibrary(libeay32.dll) -> 05BF34C0
  517. 11:20:08 T:4488 M:888918016   DEBUG: FreeLibrary(libssl32.dll) -> 05BF5590
  518. 11:20:08 T:4488 M:888918016   DEBUG: Win32DllLoader::Unload libssl32.dll
  519. 11:20:08 T:4488 M:888918016   DEBUG: FreeLibrary(libeay32.dll) -> 05BF34C0
  520. 11:20:08 T:4488 M:888848384   DEBUG: Win32DllLoader::Unload libeay32.dll
  521. 11:20:28 T:1372 M:889511936   DEBUG: FreeLibrary(KERNEL32.DLL) -> 05BF10D0
  522. 11:20:28 T:1372 M:889634816   DEBUG: Win32DllLoader::Unload KERNEL32.DLL
  523. 11:20:28 T:1372 M:889614336  NOTICE: YouTube login failed, hit ioerror except: [0] <urllib2.URLError instance at 0x088E41C0>
  524. 11:20:28 T:1372 M:889614336    INFO: -->Python script returned the following error<--
  525. 11:20:28 T:1372 M:889614336   ERROR: Error Type: exceptions.UnboundLocalError
  526. 11:20:28 T:1372 M:889614336   ERROR: Error Contents: local variable 'error' referenced before assignment
  527. 11:20:28 T:1372 M:889528320   ERROR: Traceback (most recent call last):
  528.                                               File "C:\Program Files (x86)\XBMC\portable_data\addons\plugin.video.youtube.beta\default.py", line 34, in ?
  529.                                                 navigator.login()
  530.                                               File "C:\Program Files (x86)\XBMC\portable_data\addons\plugin.video.youtube.beta\YouTubeNavigation.py", line 256, in login
  531.                                                 (result, status) = core.login()
  532.                                               File "C:\Program Files (x86)\XBMC\portable_data\addons\plugin.video.youtube.beta\YouTubeCore.py", line 110, in login
  533.                                                 return ( error, 303 )
  534.                                             UnboundLocalError: local variable 'error' referenced before assignment
  535. 11:20:28 T:1372 M:889528320    INFO: -->End of Python script error report<--
  536. 11:20:28 T:1372 M:889524224    INFO: Python script stopped
  537. 11:20:28 T:1372 M:889524224   DEBUG: Thread 1372 terminating
  538. 11:20:28 T:4140 M:889565184   DEBUG:  XFILE::CPluginDirectory::WaitOnScriptResult - plugin exited prematurely - terminating
  539. 11:20:28 T:4488 M:889565184   ERROR: XFILE::CDirectory::GetDirectory - Error getting plugin://plugin.video.youtube.beta/
  540. 11:20:28 T:4488 M:889561088   ERROR: CGUIMediaWindow::GetDirectory(plugin://plugin.video.youtube.beta/) failed
  541. 11:20:28 T:4488 M:889561088   DEBUG: CGUIMediaWindow::GetDirectory (addons://sources/video/)
  542. 11:20:28 T:4488 M:889561088   DEBUG:   ParentPath = []
  543. 11:20:28 T:4488 M:889544704 WARNING: XFILE::CVideoDatabaseDirectory::GetLabel - Unknown nodetype requested 0
  544. 11:20:28 T:2344 M:889544704   DEBUG: thread start, auto delete: 0
  545. 11:20:28 T:2344 M:889544704   DEBUG: Thread 2344 terminating
  546. 11:20:28 T:4488 M:889573376   DEBUG: python thread 2 destructed
  547. 11:20:28 T:4488 M:889495552   DEBUG: ------ Window Init (DialogKaiToast.xml) ------
  548. 11:20:29 T:4488 M:889495552   DEBUG: ------ Window Deinit (DialogProgress.xml) ------
  549. 11:20:34 T:4488 M:889667584   DEBUG: ------ Window Deinit (DialogKaiToast.xml) ------
  550. 11:20:36 T:1592 M:889671680  NOTICE: ES: Client  from 127.0.0.1 timed out
  551. 11:20:38 T:4488 M:889729024    INFO: Python, unloading python24.dll because no scripts are running anymore
  552. 11:20:38 T:4488 M:889729024   DEBUG: XBPython::UnloadExtensionLibs, clearing python extension libraries
  553. 11:20:38 T:4488 M:889729024   DEBUG: Win32DllLoader::Unload DLLs\_socket.pyd
  554. 11:20:38 T:4488 M:889729024   DEBUG: FreeLibrary(python24.dll) -> 05BF0A90
  555. 11:20:38 T:4488 M:889774080   DEBUG: Win32DllLoader::Unload DLLs\_ssl.pyd
  556. 11:20:38 T:4488 M:889774080   DEBUG: FreeLibrary(python24.dll) -> 05BF0A90
  557. 11:20:38 T:4488 M:889774080   DEBUG: FreeLibrary(MSVCR71.dll) -> 05BEFAF0
  558. 11:20:38 T:4488 M:889774080   DEBUG: Win32DllLoader::Unload MSVCR71.dll
  559. 11:20:38 T:4488 M:890253312   DEBUG: Win32DllLoader::Unload python24.dll
  560. 11:20:58 T:4140 M:891437056   DEBUG: Thread 4140 terminating (autodelete)